createdAt,value
2018-07-17T00:02:09.312Z,16.50
2018-07-17T00:04:38.209Z,15.83
2018-07-17T00:07:06.647Z,13.63
2018-07-17T00:09:35.054Z,13.10
2018-07-17T00:12:03.482Z,12.67
2018-07-17T00:14:31.865Z,13.63
2018-07-17T00:17:00.281Z,12.20
2018-07-17T00:19:28.688Z,12.33
2018-07-17T00:21:57.090Z,10.80
2018-07-17T00:24:26.068Z,10.87
2018-07-17T00:26:54.686Z,9.70
2018-07-17T00:29:23.092Z,10.10
2018-07-17T00:31:52.154Z,8.30
2018-07-17T00:34:21.148Z,10.13
2018-07-17T00:36:49.549Z,8.17
2018-07-17T00:39:17.946Z,8.37
2018-07-17T00:41:46.366Z,7.60
2018-07-17T00:44:14.780Z,7.97
2018-07-17T00:46:43.202Z,9.00
2018-07-17T00:49:11.626Z,8.23
2018-07-17T00:51:40.616Z,7.60
2018-07-17T00:54:09.140Z,7.27
2018-07-17T00:56:37.498Z,10.97
2018-07-17T00:59:05.898Z,6.87
2018-07-17T01:01:39.553Z,8.53
2018-07-17T01:04:13.376Z,6.63
2018-07-17T01:06:47.267Z,6.93
2018-07-17T01:09:21.119Z,8.13
2018-07-17T01:11:54.769Z,7.33
2018-07-17T01:14:30.535Z,8.37
2018-07-17T01:16:58.927Z,8.27
2018-07-17T01:19:27.323Z,8.33
2018-07-17T01:21:55.722Z,7.97
2018-07-17T01:24:24.113Z,7.20
2018-07-17T01:26:52.505Z,7.40
2018-07-17T01:29:21.397Z,8.17
2018-07-17T01:31:49.796Z,9.20
2018-07-17T01:34:18.349Z,9.80
2018-07-17T01:36:47.011Z,9.23
2018-07-17T01:39:15.418Z,7.63
2018-07-17T01:41:44.319Z,9.13
2018-07-17T01:44:16.523Z,8.50
2018-07-17T01:46:46.591Z,9.30
2018-07-17T01:49:16.026Z,8.43
2018-07-17T01:51:44.431Z,11.43
2018-07-17T01:54:12.869Z,9.77
2018-07-17T01:56:41.485Z,12.03
2018-07-17T01:59:10.332Z,10.87
2018-07-17T02:01:39.327Z,12.10
2018-07-17T02:04:07.761Z,16.10
2018-07-17T02:06:36.190Z,14.87
2018-07-17T02:09:05.812Z,11.77
2018-07-17T02:11:34.241Z,11.63
2018-07-17T02:14:02.670Z,11.30
2018-07-17T02:16:31.862Z,12.33
2018-07-17T02:19:00.874Z,12.40
2018-07-17T02:21:29.273Z,12.97
2018-07-17T02:23:57.683Z,13.93
2018-07-17T02:26:26.130Z,16.63
2018-07-17T02:28:54.568Z,13.90
2018-07-17T02:31:23.129Z,16.10
2018-07-17T02:33:51.560Z,15.80
2018-07-17T02:36:19.974Z,18.50
2018-07-17T02:38:48.384Z,18.37
2018-07-17T02:41:16.786Z,22.67
2018-07-17T02:43:45.176Z,21.77
2018-07-17T02:46:13.677Z,25.73
2018-07-17T02:48:42.087Z,25.40
2018-07-17T02:51:10.501Z,20.30
2018-07-17T02:53:38.897Z,18.70
2018-07-17T02:56:07.298Z,18.97
2018-07-17T02:58:35.703Z,20.43
2018-07-17T03:01:04.495Z,21.00
2018-07-17T03:03:32.883Z,21.77
2018-07-17T03:06:01.330Z,23.07
2018-07-17T03:08:29.753Z,25.03
2018-07-17T03:10:58.159Z,23.43
2018-07-17T03:13:26.641Z,23.90
2018-07-17T03:15:55.073Z,25.83
2018-07-17T03:18:23.481Z,23.43
2018-07-17T03:20:51.869Z,28.93
2018-07-17T03:23:20.272Z,25.90
2018-07-17T03:25:48.684Z,25.17
2018-07-17T03:28:17.089Z,28.67
2018-07-17T03:30:45.496Z,27.57
2018-07-17T03:33:13.909Z,27.40
2018-07-17T03:35:42.321Z,27.57
2018-07-17T03:38:10.423Z,27.57
2018-07-17T03:40:38.814Z,27.03
2018-07-17T03:43:07.217Z,28.33
2018-07-17T03:45:35.608Z,27.07
2018-07-17T03:48:04.028Z,26.60
2018-07-17T03:50:32.686Z,25.53
2018-07-17T03:53:01.111Z,23.50
2018-07-17T03:55:29.514Z,25.17
2018-07-17T03:57:57.928Z,22.73
2018-07-17T04:00:26.334Z,22.70
2018-07-17T04:02:54.759Z,26.50
2018-07-17T04:05:23.134Z,28.00
2018-07-17T04:07:51.526Z,25.87
2018-07-17T04:10:19.946Z,28.43
2018-07-17T04:12:48.354Z,30.47
2018-07-17T04:15:16.760Z,33.33
2018-07-17T04:17:45.179Z,29.33
2018-07-17T04:20:13.605Z,35.53
2018-07-17T04:22:42.011Z,31.60
2018-07-17T04:25:10.407Z,34.73
2018-07-17T04:27:39.039Z,33.53
2018-07-17T04:30:08.057Z,32.53
2018-07-17T04:32:36.545Z,35.93
2018-07-17T04:35:05.510Z,35.90
2018-07-17T04:37:33.923Z,36.47
2018-07-17T04:40:02.379Z,34.20
2018-07-17T04:42:30.967Z,34.90
2018-07-17T04:44:59.378Z,36.90
2018-07-17T04:47:27.797Z,36.33
2018-07-17T04:49:56.585Z,37.83
2018-07-17T04:52:26.061Z,42.47
2018-07-17T04:54:54.549Z,37.77
2018-07-17T04:57:22.950Z,36.77
2018-07-17T04:59:51.399Z,36.87
2018-07-17T05:02:19.976Z,38.23
2018-07-17T05:04:48.390Z,35.77
2018-07-17T05:07:16.801Z,34.37
2018-07-17T05:09:45.313Z,34.60
2018-07-17T05:12:13.705Z,32.43
2018-07-17T05:14:42.119Z,32.00
2018-07-17T05:17:10.871Z,31.67
2018-07-17T05:19:39.283Z,36.13
2018-07-17T05:22:07.854Z,35.00
2018-07-17T05:24:36.254Z,32.90
2018-07-17T05:27:04.673Z,35.90
2018-07-17T05:29:33.134Z,30.23
2018-07-17T05:32:01.532Z,33.53
2018-07-17T05:34:29.932Z,30.50
2018-07-17T05:36:58.376Z,32.17
2018-07-17T05:39:27.072Z,30.80
2018-07-17T05:41:55.478Z,36.40
2018-07-17T05:44:24.220Z,34.00
2018-07-17T05:46:53.054Z,33.80
2018-07-17T05:49:21.508Z,33.80
2018-07-17T05:51:50.041Z,35.10
2018-07-17T05:54:18.410Z,34.77
2018-07-17T05:56:46.959Z,34.17
2018-07-17T05:59:15.375Z,33.73
2018-07-17T06:01:45.460Z,34.27
2018-07-17T06:04:15.660Z,34.40
2018-07-17T06:06:44.456Z,34.30
2018-07-17T06:09:12.875Z,40.17
2018-07-17T06:11:41.878Z,35.57
2018-07-17T06:14:10.287Z,33.37
2018-07-17T06:16:39.086Z,36.03
2018-07-17T06:19:07.903Z,34.13
2018-07-17T06:21:36.321Z,29.53
2018-07-17T06:24:04.853Z,32.67
2018-07-17T06:26:33.276Z,34.23
2018-07-17T06:29:01.694Z,33.37
2018-07-17T06:31:30.091Z,32.40
2018-07-17T06:33:58.496Z,31.90
2018-07-17T06:36:26.902Z,31.67
2018-07-17T06:38:55.338Z,30.40
2018-07-17T06:41:23.730Z,34.37
2018-07-17T06:43:52.132Z,32.53
2018-07-17T06:46:20.673Z,29.73
2018-07-17T06:48:49.153Z,27.77
2018-07-17T06:51:17.647Z,28.77
2018-07-17T06:53:46.057Z,27.23
2018-07-17T06:56:14.493Z,27.73
2018-07-17T06:58:42.911Z,27.10
2018-07-17T07:01:11.707Z,28.37
2018-07-17T07:03:40.104Z,25.20
2018-07-17T07:06:08.511Z,26.17
2018-07-17T07:08:37.135Z,23.30
2018-07-17T07:11:06.028Z,24.17
2018-07-17T07:13:34.417Z,25.47
2018-07-17T07:16:02.835Z,19.97
2018-07-17T07:18:31.693Z,19.77
2018-07-17T07:21:00.443Z,17.27
2018-07-17T07:23:28.983Z,17.33
2018-07-17T07:25:57.302Z,18.17
2018-07-17T07:28:25.702Z,20.33
2018-07-17T07:30:54.121Z,13.83
2018-07-17T07:33:22.573Z,15.43
2018-07-17T07:35:50.974Z,12.87
2018-07-17T07:38:19.806Z,13.63
2018-07-17T07:40:48.212Z,12.50
2018-07-17T07:43:17.615Z,8.20
2018-07-17T07:45:46.048Z,5.63
2018-07-17T07:48:14.454Z,7.40
2018-07-17T07:50:42.845Z,8.33
2018-07-17T07:53:11.242Z,5.37
2018-07-17T07:55:39.795Z,4.87
2018-07-17T07:58:08.202Z,3.87
2018-07-17T08:00:36.602Z,3.73
2018-07-17T08:03:05.594Z,4.60
2018-07-17T08:05:34.122Z,7.53
2018-07-17T08:08:02.525Z,4.23
2018-07-17T08:10:31.695Z,3.37
2018-07-17T08:13:00.103Z,5.53
2018-07-17T08:15:28.519Z,4.13
2018-07-17T08:17:56.923Z,5.27
2018-07-17T08:20:25.320Z,4.23
2018-07-17T08:22:53.733Z,6.50
2018-07-17T08:25:22.149Z,8.57
2018-07-17T08:27:50.543Z,3.40
2018-07-17T08:30:18.940Z,3.93
2018-07-17T08:32:47.373Z,5.53
2018-07-17T08:35:15.790Z,4.83
2018-07-17T08:37:44.184Z,4.17
2018-07-17T08:40:12.581Z,4.70
2018-07-17T08:42:41.141Z,6.53
2018-07-17T08:45:09.555Z,5.30
2018-07-17T08:47:37.949Z,3.93
2018-07-17T08:50:06.382Z,3.57
2018-07-17T08:52:34.823Z,5.57
2018-07-17T08:55:03.253Z,6.40
2018-07-17T08:57:31.653Z,4.97
2018-07-17T09:00:00.057Z,3.87
2018-07-17T09:02:28.484Z,4.53
2018-07-17T09:04:56.893Z,4.43
2018-07-17T09:07:25.495Z,8.90
2018-07-17T09:09:53.900Z,5.17
2018-07-17T09:12:22.292Z,7.33
2018-07-17T09:14:50.690Z,8.73
2018-07-17T09:17:19.083Z,6.63
2018-07-17T09:19:47.494Z,4.83
2018-07-17T09:22:15.911Z,6.07
2018-07-17T09:24:44.311Z,4.53
2018-07-17T09:27:12.717Z,6.60
2018-07-17T09:29:41.109Z,5.77
2018-07-17T09:32:09.513Z,5.30
2018-07-17T09:34:37.912Z,4.63
2018-07-17T09:37:06.340Z,4.73
2018-07-17T09:39:34.446Z,4.57
2018-07-17T09:42:03.379Z,5.17
2018-07-17T09:44:31.783Z,6.60
2018-07-17T09:47:00.355Z,4.47
2018-07-17T09:49:28.774Z,4.10
2018-07-17T09:51:57.180Z,4.83
2018-07-17T09:54:25.650Z,7.07
2018-07-17T09:56:54.262Z,4.43
2018-07-17T09:59:22.742Z,4.27
2018-07-17T10:01:56.549Z,5.57
2018-07-17T10:04:24.948Z,5.50
2018-07-17T10:06:53.360Z,4.97
2018-07-17T10:09:21.818Z,5.53
2018-07-17T10:11:50.182Z,3.77
2018-07-17T10:14:18.794Z,3.87
2018-07-17T10:16:47.222Z,3.10
2018-07-17T10:19:15.625Z,4.10
2018-07-17T10:21:44.088Z,3.07
2018-07-17T10:24:12.500Z,5.33
2018-07-17T10:26:41.702Z,3.10
2018-07-17T10:29:10.124Z,4.10
2018-07-17T10:31:38.512Z,4.90
2018-07-17T10:34:06.921Z,2.37
2018-07-17T10:36:35.330Z,3.13
2018-07-17T10:39:04.747Z,7.60
2018-07-17T10:41:33.602Z,4.97
2018-07-17T10:44:02.004Z,3.80
2018-07-17T10:46:30.406Z,3.33
2018-07-17T10:48:58.816Z,6.20
2018-07-17T10:51:27.238Z,4.40
2018-07-17T10:53:55.626Z,3.77
2018-07-17T10:56:24.030Z,2.57
2018-07-17T10:58:52.451Z,5.07
2018-07-17T11:01:20.873Z,3.53
2018-07-17T11:03:49.284Z,4.90
2018-07-17T11:06:18.471Z,5.57
2018-07-17T11:08:46.896Z,4.53
2018-07-17T11:11:15.307Z,4.30
2018-07-17T11:13:43.702Z,4.53
2018-07-17T11:16:12.324Z,2.17
2018-07-17T11:18:40.738Z,3.47
2018-07-17T11:21:09.139Z,5.33
2018-07-17T11:23:37.537Z,4.80
2018-07-17T11:26:06.028Z,3.97
2018-07-17T11:28:34.457Z,6.40
2018-07-17T11:31:02.851Z,3.77
2018-07-17T11:33:31.305Z,5.63
2018-07-17T11:35:59.745Z,2.17
2018-07-17T11:38:28.157Z,4.37
2018-07-17T11:40:56.544Z,6.37
2018-07-17T11:43:24.979Z,4.30
2018-07-17T11:45:53.605Z,1.73
2018-07-17T11:48:22.024Z,2.43
2018-07-17T11:50:50.689Z,2.40
2018-07-17T11:53:20.271Z,5.03
2018-07-17T11:55:49.057Z,2.50
2018-07-17T11:58:17.662Z,4.67
2018-07-17T12:00:46.076Z,3.87
2018-07-17T12:03:14.490Z,2.23
2018-07-17T12:05:42.932Z,2.97
2018-07-17T12:08:11.337Z,4.67
2018-07-17T12:10:39.727Z,1.90
2018-07-17T12:13:08.157Z,4.00
2018-07-17T12:15:36.768Z,6.63
2018-07-17T12:18:05.200Z,2.83
2018-07-17T12:20:33.741Z,3.97
2018-07-17T12:23:02.396Z,3.27
2018-07-17T12:25:30.796Z,4.10
2018-07-17T12:27:59.231Z,5.63
2018-07-17T12:30:27.635Z,8.17
2018-07-17T12:32:56.042Z,9.03
2018-07-17T12:35:24.780Z,6.13
2018-07-17T12:37:53.808Z,5.10
2018-07-17T12:40:22.866Z,6.73
2018-07-17T12:42:51.750Z,7.90
2018-07-17T12:45:20.149Z,4.93
2018-07-17T12:47:48.545Z,2.37
2018-07-17T12:50:16.935Z,5.00
2018-07-17T12:52:45.817Z,6.10
2018-07-17T12:55:14.208Z,5.07
2018-07-17T12:57:43.729Z,5.43
2018-07-17T13:00:12.650Z,6.10
2018-07-17T13:02:41.162Z,4.73
2018-07-17T13:05:09.510Z,8.60
2018-07-17T13:07:37.914Z,6.63
2018-07-17T13:10:07.179Z,7.33
2018-07-17T13:12:35.579Z,3.30
2018-07-17T13:15:04.074Z,4.20
2018-07-17T13:17:32.574Z,4.40
2018-07-17T13:20:00.959Z,5.37
2018-07-17T13:22:29.364Z,4.30
2018-07-17T13:24:57.769Z,3.90
2018-07-17T13:27:26.162Z,3.63
2018-07-17T13:29:54.580Z,4.73
2018-07-17T13:32:22.986Z,2.43
2018-07-17T13:34:51.397Z,3.47
2018-07-17T13:37:19.792Z,4.00
2018-07-17T13:39:48.351Z,2.37
2018-07-17T13:42:16.799Z,2.87
2018-07-17T13:44:46.015Z,3.77
2018-07-17T13:47:14.416Z,2.33
2018-07-17T13:49:42.828Z,5.20
2018-07-17T13:52:11.237Z,2.57
2018-07-17T13:54:39.646Z,9.70
2018-07-17T13:57:08.067Z,4.77
2018-07-17T13:59:36.505Z,2.80
2018-07-17T14:02:06.195Z,4.07
2018-07-17T14:04:39.439Z,3.83
2018-07-17T14:07:07.954Z,2.47
2018-07-17T14:09:36.938Z,2.77
2018-07-17T14:12:05.745Z,2.90
2018-07-17T14:14:34.136Z,3.10
2018-07-17T14:17:02.901Z,4.90
2018-07-17T14:19:31.306Z,2.83
2018-07-17T14:22:00.214Z,5.60
2018-07-17T14:24:29.176Z,7.00
2018-07-17T14:26:57.878Z,3.03
2018-07-17T14:29:26.287Z,3.60
2018-07-17T14:31:54.692Z,5.53
2018-07-17T14:34:23.285Z,3.23
2018-07-17T14:36:51.689Z,3.97
2018-07-17T14:39:20.088Z,1.87
2018-07-17T14:41:49.244Z,5.13
2018-07-17T14:44:17.647Z,6.33
2018-07-17T14:46:46.075Z,5.40
2018-07-17T14:49:14.491Z,2.63
2018-07-17T14:51:43.039Z,4.43
2018-07-17T14:54:11.439Z,4.10
2018-07-17T14:56:39.940Z,4.30
2018-07-17T14:59:08.375Z,4.77
2018-07-17T15:01:36.805Z,4.00
2018-07-17T15:04:05.243Z,4.20
2018-07-17T15:06:33.665Z,4.17
2018-07-17T15:09:02.117Z,4.40
2018-07-17T15:11:30.503Z,2.60
2018-07-17T15:13:58.899Z,5.67
2018-07-17T15:16:27.285Z,3.50
2018-07-17T15:18:55.693Z,6.20
2018-07-17T15:21:24.092Z,3.63
2018-07-17T15:23:52.497Z,3.63
2018-07-17T15:26:20.914Z,3.70
2018-07-17T15:28:49.310Z,2.83
2018-07-17T15:31:17.798Z,5.67
2018-07-17T15:33:46.194Z,3.50
2018-07-17T15:36:14.612Z,3.37
2018-07-17T15:38:43.023Z,4.83
2018-07-17T15:41:11.464Z,2.83
2018-07-17T15:43:39.880Z,4.13
2018-07-17T15:46:09.135Z,4.77
2018-07-17T15:48:37.568Z,3.47
2018-07-17T15:51:05.993Z,3.23
2018-07-17T15:53:34.456Z,6.17
2018-07-17T15:56:02.852Z,3.07
2018-07-17T15:58:31.813Z,2.87
2018-07-17T16:01:00.224Z,2.67
2018-07-17T16:03:28.650Z,5.33
2018-07-17T16:05:57.125Z,6.00
2018-07-17T16:08:25.952Z,4.17
2018-07-17T16:10:54.345Z,3.50
2018-07-17T16:13:22.777Z,4.77
2018-07-17T16:15:51.335Z,4.83
2018-07-17T16:18:19.780Z,3.50
2018-07-17T16:20:48.192Z,11.90
2018-07-17T16:23:16.595Z,8.70
2018-07-17T16:25:45.297Z,3.80
2018-07-17T16:28:13.710Z,7.47
2018-07-17T16:30:42.117Z,6.83
2018-07-17T16:33:10.877Z,7.87
2018-07-17T16:35:39.281Z,4.50
2018-07-17T16:38:07.818Z,4.07
2018-07-17T16:40:36.321Z,4.63
2018-07-17T16:43:04.795Z,3.50
2018-07-17T16:45:33.193Z,3.43
2018-07-17T16:48:01.684Z,4.07
2018-07-17T16:50:30.025Z,6.47
2018-07-17T16:52:58.425Z,4.53
2018-07-17T16:55:27.661Z,11.23
2018-07-17T16:57:56.706Z,3.70
2018-07-17T17:00:25.100Z,6.00
2018-07-17T17:02:53.516Z,8.30
2018-07-17T17:05:21.928Z,3.87
2018-07-17T17:07:50.322Z,4.67
2018-07-17T17:10:18.734Z,4.60
2018-07-17T17:12:47.142Z,8.97
2018-07-17T17:15:16.046Z,8.57
2018-07-17T17:17:45.144Z,5.23
2018-07-17T17:20:13.636Z,10.37
2018-07-17T17:22:42.420Z,3.83
2018-07-17T17:25:10.922Z,9.10
2018-07-17T17:27:39.375Z,6.80
2018-07-17T17:30:08.327Z,6.10
2018-07-17T17:32:36.958Z,6.73
2018-07-17T17:35:05.444Z,7.53
2018-07-17T17:37:33.931Z,2.00
2018-07-17T17:40:02.338Z,5.50
2018-07-17T17:42:32.425Z,4.20
2018-07-17T17:45:02.527Z,5.03
2018-07-17T17:47:31.350Z,6.10
2018-07-17T17:50:00.989Z,4.13
2018-07-17T17:52:31.781Z,6.20
2018-07-17T17:55:06.545Z,8.07
2018-07-17T17:57:38.057Z,9.13
2018-07-17T18:00:07.577Z,5.57
2018-07-17T18:02:36.031Z,6.27
2018-07-17T18:05:04.868Z,7.53
2018-07-17T18:07:33.361Z,7.63
2018-07-17T18:10:02.571Z,6.73
2018-07-17T18:12:31.651Z,4.50
2018-07-17T18:15:00.064Z,7.63
2018-07-17T18:17:28.838Z,9.30
2018-07-17T18:19:57.239Z,3.97
2018-07-17T18:22:25.667Z,3.57
2018-07-17T18:24:54.607Z,6.70
2018-07-17T18:27:24.068Z,6.33
2018-07-17T18:29:52.571Z,4.93
2018-07-17T18:32:20.770Z,8.13
2018-07-17T18:34:49.948Z,7.23
2018-07-17T18:37:18.397Z,4.10
2018-07-17T18:39:46.941Z,4.77
2018-07-17T18:42:15.530Z,6.70
2018-07-17T18:44:43.849Z,9.97
2018-07-17T18:47:12.831Z,3.97
2018-07-17T18:49:41.302Z,5.00
2018-07-17T18:52:09.849Z,6.43
2018-07-17T18:54:38.605Z,4.17
2018-07-17T18:57:07.054Z,6.37
2018-07-17T18:59:36.026Z,4.63
2018-07-17T19:02:04.230Z,6.33
2018-07-17T19:04:33.157Z,2.57
2018-07-17T19:07:01.623Z,2.90
2018-07-17T19:09:30.066Z,4.03
2018-07-17T19:11:58.509Z,8.90
2018-07-17T19:14:27.560Z,4.77
2018-07-17T19:16:56.041Z,5.70
2018-07-17T19:19:25.093Z,3.30
2018-07-17T19:21:53.641Z,3.17
2018-07-17T19:24:22.511Z,5.37
2018-07-17T19:26:51.027Z,5.50
2018-07-17T19:29:19.911Z,2.90
2018-07-17T19:31:49.002Z,2.43
2018-07-17T19:34:17.536Z,2.43
2018-07-17T19:36:46.133Z,2.83
2018-07-17T19:39:15.068Z,3.70
2018-07-17T19:41:44.110Z,2.07
2018-07-17T19:44:12.612Z,1.37
2018-07-17T19:46:41.086Z,5.20
2018-07-17T19:49:10.062Z,1.60
2018-07-17T19:51:38.499Z,3.00
2018-07-17T19:54:07.102Z,3.90
2018-07-17T19:56:35.760Z,2.40
2018-07-17T19:59:04.228Z,2.23
2018-07-17T20:01:33.340Z,1.60
2018-07-17T20:04:01.742Z,5.03
2018-07-17T20:06:30.627Z,1.87
2018-07-17T20:08:59.815Z,3.87
2018-07-17T20:11:28.787Z,1.67
2018-07-17T20:13:57.283Z,2.87
2018-07-17T20:16:25.870Z,5.03
2018-07-17T20:18:54.616Z,2.23
2018-07-17T20:21:23.061Z,3.03
2018-07-17T20:23:51.527Z,3.93
2018-07-17T20:26:19.939Z,4.00
2018-07-17T20:28:48.665Z,3.57
2018-07-17T20:31:17.102Z,3.10
2018-07-17T20:33:46.195Z,2.87
2018-07-17T20:36:14.851Z,1.57
2018-07-17T20:38:43.608Z,2.07
2018-07-17T20:41:12.044Z,2.00
2018-07-17T20:43:40.459Z,2.87
2018-07-17T20:46:08.967Z,3.60
2018-07-17T20:48:37.381Z,3.23
2018-07-17T20:51:05.890Z,3.63
2018-07-17T20:53:34.713Z,3.83
2018-07-17T20:56:04.056Z,7.67
2018-07-17T20:58:32.551Z,1.83
2018-07-17T21:01:01.422Z,1.30
2018-07-17T21:03:29.868Z,2.67
2018-07-17T21:05:58.272Z,3.97
2018-07-17T21:08:27.431Z,2.87
2018-07-17T21:10:55.972Z,3.00
2018-07-17T21:13:24.841Z,2.53
2018-07-17T21:15:53.570Z,2.07
2018-07-17T21:18:21.991Z,4.27
2018-07-17T21:20:50.462Z,2.90
2018-07-17T21:23:19.278Z,3.33
2018-07-17T21:25:47.920Z,3.43
2018-07-17T21:28:16.908Z,4.77
2018-07-17T21:30:45.310Z,2.83
2018-07-17T21:33:13.698Z,3.23
2018-07-17T21:35:42.094Z,2.43
2018-07-17T21:38:10.684Z,2.57
2018-07-17T21:40:39.682Z,2.67
2018-07-17T21:43:08.110Z,1.83
2018-07-17T21:45:36.658Z,4.90
2018-07-17T21:48:05.079Z,1.60
2018-07-17T21:50:33.758Z,2.07
2018-07-17T21:53:02.225Z,4.50
2018-07-17T21:55:30.839Z,3.80
2018-07-17T21:57:59.241Z,3.13
2018-07-17T22:00:28.923Z,1.90
2018-07-17T22:02:58.139Z,3.40
2018-07-17T22:05:27.189Z,1.83
2018-07-17T22:07:55.680Z,2.20
2018-07-17T22:10:24.081Z,2.87
2018-07-17T22:12:52.557Z,2.47
2018-07-17T22:15:21.172Z,2.80
2018-07-17T22:17:49.530Z,2.47
2018-07-17T22:20:17.973Z,2.20
2018-07-17T22:22:46.376Z,1.87
2018-07-17T22:25:15.415Z,2.07
2018-07-17T22:27:43.891Z,2.77
2018-07-17T22:30:12.336Z,1.87
2018-07-17T22:32:40.405Z,3.50
2018-07-17T22:35:08.994Z,2.77
2018-07-17T22:37:37.825Z,2.17
2018-07-17T22:40:06.963Z,2.03
2018-07-17T22:42:35.370Z,4.03
2018-07-17T22:45:03.771Z,2.93
2018-07-17T22:47:32.179Z,2.20
2018-07-17T22:50:00.595Z,2.57
2018-07-17T22:52:28.990Z,3.57
2018-07-17T22:54:57.391Z,2.40
2018-07-17T22:57:26.204Z,2.17
2018-07-17T22:59:54.680Z,2.37
2018-07-17T23:02:23.082Z,2.70
2018-07-17T23:04:51.494Z,2.00
2018-07-17T23:07:19.894Z,3.10
2018-07-17T23:09:48.292Z,3.83
2018-07-17T23:12:17.134Z,2.80
2018-07-17T23:14:45.486Z,3.87
2018-07-17T23:17:13.906Z,2.30
2018-07-17T23:19:42.306Z,2.40
2018-07-17T23:22:10.717Z,3.03
2018-07-17T23:24:39.112Z,3.10
2018-07-17T23:27:07.515Z,5.07
2018-07-17T23:29:35.907Z,3.20
2018-07-17T23:32:04.306Z,5.43
2018-07-17T23:34:32.907Z,3.83
2018-07-17T23:37:01.322Z,6.77
2018-07-17T23:39:29.716Z,5.80
2018-07-17T23:41:58.345Z,8.27
2018-07-17T23:44:26.986Z,4.33
2018-07-17T23:46:55.386Z,3.97
2018-07-17T23:49:29.261Z,5.43
2018-07-17T23:51:57.655Z,4.53
2018-07-17T23:54:26.403Z,6.33
2018-07-17T23:56:54.874Z,6.80
2018-07-17T23:59:23.275Z,4.10
